Portada
METAR-TAF:

METAR-TAF

Aeropuertos :

Aeropuerto de Sofía

Sofía, Bulgaria

latitud: 42-39N, longitud: 023-23E, altitud: 586 m

Observación

El informe se hizo hace 17 minutos, a las 19:30 UTC
Viento 8 kt del este
Temperatura 12°C
Humedad 54%
Presión 1013 hPa
Visibilidad 10 km o más
sin nubes por debajo de 1500 m y sin presencia de cumulonimbus.

METAR: LBSF 181930Z 09008KT CAVOK 12/03 Q1013 NOSIG

Hora: 21:47 (19:47 UTC)

Pronóstico

El informe se hizo hace 2 horas y 47 minutos, a las 17:00 UTC
Pronóstico válido del 18 a las 18 UTC al 19 a las 18 UTC
Viento 10 kt del este
Visibilidad 10 km o más
sin nubes por debajo de 1500 m y sin presencia de cumulonimbus.
Evolucionando progresivamente
del 18 a las 18 UTC al 18 a las 20 UTC
Viento 4 kt con dirección variable
Evolucionando progresivamente
del 19 a las 00 UTC al 19 a las 02 UTC
Viento 10 kt del oeste

TAF: LBSF 181700Z 1818/1918 10010KT CAVOK BECMG 1818/1820 VRB04KT BECMG 1900/1902 27010KT

Observaciones y pronósticos meteorológicos de más de 4000 aeropuertos (mensajes METAR y TAF).

Los puntos amarillos y rojos representan las estaciones disponibles.

Ponga el ratón en el punto deseado para ver el nombre de la estación.

Haga clic para ver las observaciones y los pronósticos meteorológicos.

Para cambiar el mapa : haga clic en los botones verdes con una cruz de color negro para hacer un zoom, en el botón verde con un guión para alejar o en las flechas verdes para mapas adyacentes.


METAR-TAF: